sensor_id;sensor_type;location;lat;lon;timestamp;temperature;humidity
1686;DHT22;840;47.980;7.830;2022-07-03T00:01:55;21.30;99.90
1686;DHT22;840;47.980;7.830;2022-07-03T00:04:22;21.30;99.90
1686;DHT22;840;47.980;7.830;2022-07-03T00:06:48;21.30;99.90
1686;DHT22;840;47.980;7.830;2022-07-03T00:09:16;21.30;99.90
1686;DHT22;840;47.980;7.830;2022-07-03T00:11:44;21.20;99.90
1686;DHT22;840;47.980;7.830;2022-07-03T00:14:10;21.20;99.90
1686;DHT22;840;47.980;7.830;2022-07-03T00:16:38;21.20;99.90
1686;DHT22;840;47.980;7.830;2022-07-03T00:19:06;21.10;99.90
1686;DHT22;840;47.980;7.830;2022-07-03T00:21:35;21.10;99.90
1686;DHT22;840;47.980;7.830;2022-07-03T00:24:08;21.10;99.90
1686;DHT22;840;47.980;7.830;2022-07-03T00:26:39;21.10;99.90
1686;DHT22;840;47.980;7.830;2022-07-03T00:29:08;21.00;99.90
1686;DHT22;840;47.980;7.830;2022-07-03T00:31:35;20.90;99.90
1686;DHT22;840;47.980;7.830;2022-07-03T00:34:02;20.80;99.90
1686;DHT22;840;47.980;7.830;2022-07-03T00:36:34;20.70;99.90
1686;DHT22;840;47.980;7.830;2022-07-03T00:39:02;20.70;99.90
1686;DHT22;840;47.980;7.830;2022-07-03T00:41:31;20.70;99.90
1686;DHT22;840;47.980;7.830;2022-07-03T00:43:58;20.60;99.90
1686;DHT22;840;47.980;7.830;2022-07-03T00:46:26;20.60;99.90
1686;DHT22;840;47.980;7.830;2022-07-03T00:48:55;20.60;99.90
1686;DHT22;840;47.980;7.830;2022-07-03T00:51:24;20.60;99.90
1686;DHT22;840;47.980;7.830;2022-07-03T00:53:54;20.60;99.90
1686;DHT22;840;47.980;7.830;2022-07-03T00:56:24;20.60;99.90
1686;DHT22;840;47.980;7.830;2022-07-03T00:58:56;20.50;99.90
1686;DHT22;840;47.980;7.830;2022-07-03T01:01:25;20.50;99.90
1686;DHT22;840;47.980;7.830;2022-07-03T01:04:10;20.50;99.90
1686;DHT22;840;47.980;7.830;2022-07-03T01:06:52;20.50;99.90
1686;DHT22;840;47.980;7.830;2022-07-03T01:09:31;20.50;99.90
1686;DHT22;840;47.980;7.830;2022-07-03T01:12:03;20.40;99.90
1686;DHT22;840;47.980;7.830;2022-07-03T01:14:38;20.40;99.90
1686;DHT22;840;47.980;7.830;2022-07-03T01:17:18;20.30;99.90
1686;DHT22;840;47.980;7.830;2022-07-03T01:19:48;20.20;99.90
1686;DHT22;840;47.980;7.830;2022-07-03T01:22:34;20.20;99.90
1686;DHT22;840;47.980;7.830;2022-07-03T01:25:25;20.10;99.90
1686;DHT22;840;47.980;7.830;2022-07-03T01:28:08;20.00;99.90
1686;DHT22;840;47.980;7.830;2022-07-03T01:30:37;20.00;99.90
1686;DHT22;840;47.980;7.830;2022-07-03T01:33:06;20.00;99.90
1686;DHT22;840;47.980;7.830;2022-07-03T01:35:35;19.90;99.90
1686;DHT22;840;47.980;7.830;2022-07-03T01:38:05;19.90;99.90
1686;DHT22;840;47.980;7.830;2022-07-03T01:40:34;20.00;99.90
1686;DHT22;840;47.980;7.830;2022-07-03T01:43:04;19.90;99.90
1686;DHT22;840;47.980;7.830;2022-07-03T01:45:35;19.90;99.90
1686;DHT22;840;47.980;7.830;2022-07-03T01:48:07;19.80;99.90
1686;DHT22;840;47.980;7.830;2022-07-03T01:50:34;19.80;99.90
1686;DHT22;840;47.980;7.830;2022-07-03T01:53:03;19.80;99.90
1686;DHT22;840;47.980;7.830;2022-07-03T01:55:31;19.80;99.90
1686;DHT22;840;47.980;7.830;2022-07-03T01:57:59;19.70;99.90
1686;DHT22;840;47.980;7.830;2022-07-03T02:00:28;19.60;99.90
1686;DHT22;840;47.980;7.830;2022-07-03T02:02:58;19.60;99.90
1686;DHT22;840;47.980;7.830;2022-07-03T02:05:39;19.50;99.90
1686;DHT22;840;47.980;7.830;2022-07-03T02:08:43;19.40;99.90
1686;DHT22;840;47.980;7.830;2022-07-03T02:11:13;19.40;99.90
1686;DHT22;840;47.980;7.830;2022-07-03T02:13:50;19.30;99.90
1686;DHT22;840;47.980;7.830;2022-07-03T02:16:21;19.30;99.90
1686;DHT22;840;47.980;7.830;2022-07-03T02:18:55;19.30;99.90
1686;DHT22;840;47.980;7.830;2022-07-03T02:21:26;19.30;99.90
1686;DHT22;840;47.980;7.830;2022-07-03T02:23:59;19.30;99.90
1686;DHT22;840;47.980;7.830;2022-07-03T02:26:32;19.30;99.90
1686;DHT22;840;47.980;7.830;2022-07-03T02:29:03;19.30;99.90
1686;DHT22;840;47.980;7.830;2022-07-03T02:31:38;19.30;99.90
1686;DHT22;840;47.980;7.830;2022-07-03T02:34:07;19.20;99.90
1686;DHT22;840;47.980;7.830;2022-07-03T02:36:35;19.20;99.90
1686;DHT22;840;47.980;7.830;2022-07-03T02:39:04;19.20;99.90
1686;DHT22;840;47.980;7.830;2022-07-03T02:41:42;19.10;99.90
1686;DHT22;840;47.980;7.830;2022-07-03T02:44:16;19.10;99.90
1686;DHT22;840;47.980;7.830;2022-07-03T02:46:53;19.10;99.90
1686;DHT22;840;47.980;7.830;2022-07-03T02:49:43;19.10;99.90
1686;DHT22;840;47.980;7.830;2022-07-03T02:52:34;19.10;99.90
1686;DHT22;840;47.980;7.830;2022-07-03T02:55:15;19.10;99.90
1686;DHT22;840;47.980;7.830;2022-07-03T02:57:57;19.00;99.90
1686;DHT22;840;47.980;7.830;2022-07-03T03:00:28;19.00;99.90
1686;DHT22;840;47.980;7.830;2022-07-03T03:03:01;18.90;99.90
1686;DHT22;840;47.980;7.830;2022-07-03T03:05:31;18.90;99.90
1686;DHT22;840;47.980;7.830;2022-07-03T03:08:08;18.80;99.90
1686;DHT22;840;47.980;7.830;2022-07-03T03:10:38;18.80;99.90
1686;DHT22;840;47.980;7.830;2022-07-03T03:13:08;18.70;99.90
1686;DHT22;840;47.980;7.830;2022-07-03T03:15:36;18.70;99.90
1686;DHT22;840;47.980;7.830;2022-07-03T03:18:08;18.70;99.90
1686;DHT22;840;47.980;7.830;2022-07-03T03:20:38;18.60;99.90
1686;DHT22;840;47.980;7.830;2022-07-03T03:23:15;18.60;99.90
1686;DHT22;840;47.980;7.830;2022-07-03T03:25:44;18.60;99.90
1686;DHT22;840;47.980;7.830;2022-07-03T03:28:11;18.60;99.90
1686;DHT22;840;47.980;7.830;2022-07-03T03:30:39;18.60;99.90
1686;DHT22;840;47.980;7.830;2022-07-03T03:33:07;18.60;99.90
1686;DHT22;840;47.980;7.830;2022-07-03T03:35:35;18.60;99.90
1686;DHT22;840;47.980;7.830;2022-07-03T03:38:02;18.60;99.90
1686;DHT22;840;47.980;7.830;2022-07-03T03:40:30;18.60;99.90
1686;DHT22;840;47.980;7.830;2022-07-03T03:42:57;18.60;99.90
1686;DHT22;840;47.980;7.830;2022-07-03T03:45:24;18.60;99.90
1686;DHT22;840;47.980;7.830;2022-07-03T03:47:51;18.50;99.90
1686;DHT22;840;47.980;7.830;2022-07-03T03:50:19;18.50;99.90
1686;DHT22;840;47.980;7.830;2022-07-03T03:52:47;18.60;99.90
1686;DHT22;840;47.980;7.830;2022-07-03T03:55:14;18.60;99.90
1686;DHT22;840;47.980;7.830;2022-07-03T03:57:41;18.50;99.90
1686;DHT22;840;47.980;7.830;2022-07-03T04:00:09;18.50;99.90
1686;DHT22;840;47.980;7.830;2022-07-03T04:02:35;18.50;99.90
1686;DHT22;840;47.980;7.830;2022-07-03T04:05:03;18.50;99.90
1686;DHT22;840;47.980;7.830;2022-07-03T04:07:31;18.50;99.90
1686;DHT22;840;47.980;7.830;2022-07-03T04:09:58;18.50;99.90
1686;DHT22;840;47.980;7.830;2022-07-03T04:12:25;18.50;99.90
1686;DHT22;840;47.980;7.830;2022-07-03T04:14:52;18.50;99.90
1686;DHT22;840;47.980;7.830;2022-07-03T04:17:19;18.50;99.90
1686;DHT22;840;47.980;7.830;2022-07-03T04:19:45;18.50;99.90
1686;DHT22;840;47.980;7.830;2022-07-03T04:22:12;18.50;99.90
1686;DHT22;840;47.980;7.830;2022-07-03T04:24:41;18.50;99.90
1686;DHT22;840;47.980;7.830;2022-07-03T04:27:07;18.60;99.90
1686;DHT22;840;47.980;7.830;2022-07-03T04:29:34;18.60;99.90
1686;DHT22;840;47.980;7.830;2022-07-03T04:32:01;18.60;99.90
1686;DHT22;840;47.980;7.830;2022-07-03T04:34:28;18.60;99.90
1686;DHT22;840;47.980;7.830;2022-07-03T04:36:54;18.60;99.90
1686;DHT22;840;47.980;7.830;2022-07-03T04:39:21;18.60;99.90
1686;DHT22;840;47.980;7.830;2022-07-03T04:41:49;18.60;99.90
1686;DHT22;840;47.980;7.830;2022-07-03T04:44:17;18.70;99.90
1686;DHT22;840;47.980;7.830;2022-07-03T04:46:43;18.70;99.90
1686;DHT22;840;47.980;7.830;2022-07-03T04:49:10;18.70;99.90
1686;DHT22;840;47.980;7.830;2022-07-03T04:51:37;18.70;99.90
1686;DHT22;840;47.980;7.830;2022-07-03T04:54:04;18.80;99.90
1686;DHT22;840;47.980;7.830;2022-07-03T04:56:30;18.80;99.90
1686;DHT22;840;47.980;7.830;2022-07-03T04:58:58;18.80;99.90
1686;DHT22;840;47.980;7.830;2022-07-03T05:01:25;18.90;99.90
1686;DHT22;840;47.980;7.830;2022-07-03T05:03:52;18.90;99.90
1686;DHT22;840;47.980;7.830;2022-07-03T05:06:19;18.90;99.90
1686;DHT22;840;47.980;7.830;2022-07-03T05:08:46;19.00;99.90
1686;DHT22;840;47.980;7.830;2022-07-03T05:11:13;19.10;99.90
1686;DHT22;840;47.980;7.830;2022-07-03T05:13:39;19.20;99.90
1686;DHT22;840;47.980;7.830;2022-07-03T05:16:08;19.20;99.90
1686;DHT22;840;47.980;7.830;2022-07-03T05:18:35;19.30;99.90
1686;DHT22;840;47.980;7.830;2022-07-03T05:21:02;19.40;99.90
1686;DHT22;840;47.980;7.830;2022-07-03T05:23:29;19.40;99.90
1686;DHT22;840;47.980;7.830;2022-07-03T05:25:56;19.40;99.90
1686;DHT22;840;47.980;7.830;2022-07-03T05:28:24;19.50;99.90
1686;DHT22;840;47.980;7.830;2022-07-03T05:30:51;19.60;99.90
1686;DHT22;840;47.980;7.830;2022-07-03T05:33:20;19.60;99.90
1686;DHT22;840;47.980;7.830;2022-07-03T05:35:47;19.70;99.90
1686;DHT22;840;47.980;7.830;2022-07-03T05:38:14;19.70;99.90
1686;DHT22;840;47.980;7.830;2022-07-03T05:41:01;19.80;99.90
1686;DHT22;840;47.980;7.830;2022-07-03T05:43:27;19.80;99.90
1686;DHT22;840;47.980;7.830;2022-07-03T05:45:54;19.90;99.90
1686;DHT22;840;47.980;7.830;2022-07-03T05:48:22;19.90;99.90
1686;DHT22;840;47.980;7.830;2022-07-03T05:50:48;20.00;99.90
1686;DHT22;840;47.980;7.830;2022-07-03T05:53:16;20.00;99.90
1686;DHT22;840;47.980;7.830;2022-07-03T05:55:43;20.10;99.90
1686;DHT22;840;47.980;7.830;2022-07-03T05:58:09;20.20;99.90
1686;DHT22;840;47.980;7.830;2022-07-03T06:00:36;20.20;99.90
1686;DHT22;840;47.980;7.830;2022-07-03T06:03:03;20.30;99.90
1686;DHT22;840;47.980;7.830;2022-07-03T06:05:32;20.30;99.90
1686;DHT22;840;47.980;7.830;2022-07-03T06:07:59;20.40;99.90
1686;DHT22;840;47.980;7.830;2022-07-03T06:10:27;20.40;99.90
1686;DHT22;840;47.980;7.830;2022-07-03T06:12:55;20.50;99.90
1686;DHT22;840;47.980;7.830;2022-07-03T06:15:21;20.60;99.90
1686;DHT22;840;47.980;7.830;2022-07-03T06:17:48;20.60;99.90
1686;DHT22;840;47.980;7.830;2022-07-03T06:20:16;20.70;99.90
1686;DHT22;840;47.980;7.830;2022-07-03T06:22:44;20.70;99.90
1686;DHT22;840;47.980;7.830;2022-07-03T06:25:11;20.80;99.90
1686;DHT22;840;47.980;7.830;2022-07-03T06:27:38;20.90;99.90
1686;DHT22;840;47.980;7.830;2022-07-03T06:30:06;21.00;99.90
1686;DHT22;840;47.980;7.830;2022-07-03T06:32:33;21.00;99.90
1686;DHT22;840;47.980;7.830;2022-07-03T06:35:00;21.10;99.90
1686;DHT22;840;47.980;7.830;2022-07-03T06:37:26;21.20;99.90
1686;DHT22;840;47.980;7.830;2022-07-03T06:39:55;21.30;99.90
1686;DHT22;840;47.980;7.830;2022-07-03T06:42:22;21.30;99.90
1686;DHT22;840;47.980;7.830;2022-07-03T06:44:49;21.40;99.90
1686;DHT22;840;47.980;7.830;2022-07-03T06:47:16;21.50;99.90
1686;DHT22;840;47.980;7.830;2022-07-03T06:49:42;21.50;99.90
1686;DHT22;840;47.980;7.830;2022-07-03T06:52:09;21.60;99.90
1686;DHT22;840;47.980;7.830;2022-07-03T06:54:37;21.70;99.90
1686;DHT22;840;47.980;7.830;2022-07-03T06:57:08;21.80;99.90
1686;DHT22;840;47.980;7.830;2022-07-03T06:59:34;21.90;99.90
1686;DHT22;840;47.980;7.830;2022-07-03T07:02:01;22.00;99.90
1686;DHT22;840;47.980;7.830;2022-07-03T07:04:28;22.10;99.90
1686;DHT22;840;47.980;7.830;2022-07-03T07:06:55;22.20;99.90
1686;DHT22;840;47.980;7.830;2022-07-03T07:09:22;22.20;99.90
1686;DHT22;840;47.980;7.830;2022-07-03T07:11:49;22.30;99.90
1686;DHT22;840;47.980;7.830;2022-07-03T07:14:17;22.30;99.90
1686;DHT22;840;47.980;7.830;2022-07-03T07:16:43;22.40;99.90
1686;DHT22;840;47.980;7.830;2022-07-03T07:19:10;22.40;99.90
1686;DHT22;840;47.980;7.830;2022-07-03T07:21:37;22.50;99.90
1686;DHT22;840;47.980;7.830;2022-07-03T07:24:05;22.60;99.90
1686;DHT22;840;47.980;7.830;2022-07-03T07:26:32;22.60;99.90
1686;DHT22;840;47.980;7.830;2022-07-03T07:28:59;22.70;99.90
1686;DHT22;840;47.980;7.830;2022-07-03T07:31:27;22.80;99.90
1686;DHT22;840;47.980;7.830;2022-07-03T07:33:54;22.90;99.90
1686;DHT22;840;47.980;7.830;2022-07-03T07:36:21;22.90;99.90
1686;DHT22;840;47.980;7.830;2022-07-03T07:38:52;23.00;99.90
1686;DHT22;840;47.980;7.830;2022-07-03T07:41:22;23.00;99.90
1686;DHT22;840;47.980;7.830;2022-07-03T07:43:49;23.10;99.90
1686;DHT22;840;47.980;7.830;2022-07-03T07:46:19;23.20;99.90
1686;DHT22;840;47.980;7.830;2022-07-03T07:48:48;23.20;99.90
1686;DHT22;840;47.980;7.830;2022-07-03T07:51:15;23.30;99.90
1686;DHT22;840;47.980;7.830;2022-07-03T07:53:42;23.30;99.90
1686;DHT22;840;47.980;7.830;2022-07-03T07:56:09;23.40;99.90
1686;DHT22;840;47.980;7.830;2022-07-03T07:58:36;23.50;99.90
1686;DHT22;840;47.980;7.830;2022-07-03T08:01:03;23.50;99.90
1686;DHT22;840;47.980;7.830;2022-07-03T08:03:49;23.60;99.90
1686;DHT22;840;47.980;7.830;2022-07-03T08:06:33;23.60;99.90
1686;DHT22;840;47.980;7.830;2022-07-03T08:09:00;23.70;99.90
1686;DHT22;840;47.980;7.830;2022-07-03T08:11:27;23.80;99.90
1686;DHT22;840;47.980;7.830;2022-07-03T08:13:54;23.80;99.90
1686;DHT22;840;47.980;7.830;2022-07-03T08:16:21;23.90;99.90
1686;DHT22;840;47.980;7.830;2022-07-03T08:18:49;24.00;99.90
1686;DHT22;840;47.980;7.830;2022-07-03T08:21:18;24.10;99.90
1686;DHT22;840;47.980;7.830;2022-07-03T08:23:44;24.20;99.90
1686;DHT22;840;47.980;7.830;2022-07-03T08:26:11;24.20;99.90
1686;DHT22;840;47.980;7.830;2022-07-03T08:28:38;24.30;99.90
1686;DHT22;840;47.980;7.830;2022-07-03T08:31:05;24.40;99.90
1686;DHT22;840;47.980;7.830;2022-07-03T08:33:32;24.40;99.90
1686;DHT22;840;47.980;7.830;2022-07-03T08:36:01;24.50;99.90
1686;DHT22;840;47.980;7.830;2022-07-03T08:38:31;24.60;99.90
1686;DHT22;840;47.980;7.830;2022-07-03T08:40:59;24.60;99.90
1686;DHT22;840;47.980;7.830;2022-07-03T08:43:26;24.70;99.90
1686;DHT22;840;47.980;7.830;2022-07-03T08:45:54;24.80;99.90
1686;DHT22;840;47.980;7.830;2022-07-03T08:48:21;24.80;99.90
1686;DHT22;840;47.980;7.830;2022-07-03T08:50:49;24.90;99.90
1686;DHT22;840;47.980;7.830;2022-07-03T08:53:18;24.90;99.90
1686;DHT22;840;47.980;7.830;2022-07-03T08:55:47;25.00;99.90
1686;DHT22;840;47.980;7.830;2022-07-03T08:58:15;25.00;99.90
1686;DHT22;840;47.980;7.830;2022-07-03T09:00:42;25.10;99.90
1686;DHT22;840;47.980;7.830;2022-07-03T09:03:10;25.10;99.90
1686;DHT22;840;47.980;7.830;2022-07-03T09:05:38;25.20;99.90
1686;DHT22;840;47.980;7.830;2022-07-03T09:08:06;25.20;99.90
1686;DHT22;840;47.980;7.830;2022-07-03T09:10:34;25.30;99.90
1686;DHT22;840;47.980;7.830;2022-07-03T09:13:02;25.30;99.90
1686;DHT22;840;47.980;7.830;2022-07-03T09:15:29;25.30;99.90
1686;DHT22;840;47.980;7.830;2022-07-03T09:17:57;25.30;99.90
1686;DHT22;840;47.980;7.830;2022-07-03T09:20:32;25.30;99.50
1686;DHT22;840;47.980;7.830;2022-07-03T09:23:11;25.40;96.70
1686;DHT22;840;47.980;7.830;2022-07-03T09:25:52;25.40;97.40
1686;DHT22;840;47.980;7.830;2022-07-03T09:28:20;25.40;97.20
1686;DHT22;840;47.980;7.830;2022-07-03T09:30:57;25.40;96.90
1686;DHT22;840;47.980;7.830;2022-07-03T09:33:25;25.50;97.40
1686;DHT22;840;47.980;7.830;2022-07-03T09:35:53;25.60;97.00
1686;DHT22;840;47.980;7.830;2022-07-03T09:38:21;25.60;97.70
1686;DHT22;840;47.980;7.830;2022-07-03T09:40:51;25.60;96.60
1686;DHT22;840;47.980;7.830;2022-07-03T09:43:23;25.70;97.00
1686;DHT22;840;47.980;7.830;2022-07-03T09:45:54;25.80;95.40
1686;DHT22;840;47.980;7.830;2022-07-03T09:48:23;25.80;95.10
1686;DHT22;840;47.980;7.830;2022-07-03T09:51:11;25.90;95.80
1686;DHT22;840;47.980;7.830;2022-07-03T09:53:56;25.90;96.00
1686;DHT22;840;47.980;7.830;2022-07-03T09:56:26;26.00;95.00
1686;DHT22;840;47.980;7.830;2022-07-03T09:59:08;26.00;95.70
1686;DHT22;840;47.980;7.830;2022-07-03T10:01:38;26.00;94.00
1686;DHT22;840;47.980;7.830;2022-07-03T10:04:17;26.10;92.30
1686;DHT22;840;47.980;7.830;2022-07-03T10:06:52;26.10;92.00
1686;DHT22;840;47.980;7.830;2022-07-03T10:09:21;26.20;92.50
1686;DHT22;840;47.980;7.830;2022-07-03T10:11:49;26.20;92.70
1686;DHT22;840;47.980;7.830;2022-07-03T10:14:19;26.30;92.30
1686;DHT22;840;47.980;7.830;2022-07-03T10:16:47;26.30;92.10
1686;DHT22;840;47.980;7.830;2022-07-03T10:19:19;26.30;92.00
1686;DHT22;840;47.980;7.830;2022-07-03T10:21:51;26.40;92.00
1686;DHT22;840;47.980;7.830;2022-07-03T10:24:21;26.40;91.00
1686;DHT22;840;47.980;7.830;2022-07-03T10:26:49;26.50;90.40
1686;DHT22;840;47.980;7.830;2022-07-03T10:29:17;26.60;91.50
1686;DHT22;840;47.980;7.830;2022-07-03T10:31:46;26.60;90.80
1686;DHT22;840;47.980;7.830;2022-07-03T10:34:17;26.70;89.40
1686;DHT22;840;47.980;7.830;2022-07-03T10:36:47;26.70;90.30
1686;DHT22;840;47.980;7.830;2022-07-03T10:39:22;26.80;86.90
1686;DHT22;840;47.980;7.830;2022-07-03T10:41:55;26.80;90.10
1686;DHT22;840;47.980;7.830;2022-07-03T10:44:52;26.90;90.60
1686;DHT22;840;47.980;7.830;2022-07-03T10:47:53;26.90;85.50
1686;DHT22;840;47.980;7.830;2022-07-03T10:50:21;27.00;87.50
1686;DHT22;840;47.980;7.830;2022-07-03T10:52:50;27.00;87.70
1686;DHT22;840;47.980;7.830;2022-07-03T10:55:18;27.10;89.30
1686;DHT22;840;47.980;7.830;2022-07-03T10:58:08;27.10;88.90
1686;DHT22;840;47.980;7.830;2022-07-03T11:00:53;27.20;86.30
1686;DHT22;840;47.980;7.830;2022-07-03T11:03:51;27.20;84.90
1686;DHT22;840;47.980;7.830;2022-07-03T11:06:18;27.30;89.40
1686;DHT22;840;47.980;7.830;2022-07-03T11:09:03;27.30;86.80
1686;DHT22;840;47.980;7.830;2022-07-03T11:11:34;27.30;85.90
1686;DHT22;840;47.980;7.830;2022-07-03T11:14:21;27.30;86.00
1686;DHT22;840;47.980;7.830;2022-07-03T11:16:48;27.30;86.20
1686;DHT22;840;47.980;7.830;2022-07-03T11:19:15;27.40;90.30
1686;DHT22;840;47.980;7.830;2022-07-03T11:21:48;27.40;86.00
1686;DHT22;840;47.980;7.830;2022-07-03T11:24:34;27.40;85.30
1686;DHT22;840;47.980;7.830;2022-07-03T11:27:19;27.40;87.50
1686;DHT22;840;47.980;7.830;2022-07-03T11:29:54;27.40;86.60
1686;DHT22;840;47.980;7.830;2022-07-03T11:32:46;27.50;87.70
1686;DHT22;840;47.980;7.830;2022-07-03T11:35:43;27.50;87.50
1686;DHT22;840;47.980;7.830;2022-07-03T11:38:12;27.60;85.90
1686;DHT22;840;47.980;7.830;2022-07-03T11:40:42;27.60;85.20
1686;DHT22;840;47.980;7.830;2022-07-03T11:43:10;27.80;85.50
1686;DHT22;840;47.980;7.830;2022-07-03T11:45:39;27.80;85.80
1686;DHT22;840;47.980;7.830;2022-07-03T11:48:09;27.90;86.80
1686;DHT22;840;47.980;7.830;2022-07-03T11:50:37;28.00;85.10
1686;DHT22;840;47.980;7.830;2022-07-03T11:53:22;28.00;85.60
1686;DHT22;840;47.980;7.830;2022-07-03T11:55:51;28.10;85.90
1686;DHT22;840;47.980;7.830;2022-07-03T11:58:19;28.20;85.60
1686;DHT22;840;47.980;7.830;2022-07-03T12:00:47;28.30;86.20
1686;DHT22;840;47.980;7.830;2022-07-03T12:03:20;28.30;82.60
1686;DHT22;840;47.980;7.830;2022-07-03T12:05:52;28.40;83.90
1686;DHT22;840;47.980;7.830;2022-07-03T12:08:30;28.40;85.40
1686;DHT22;840;47.980;7.830;2022-07-03T12:10:59;28.50;83.40
1686;DHT22;840;47.980;7.830;2022-07-03T12:13:27;28.60;84.90
1686;DHT22;840;47.980;7.830;2022-07-03T12:16:03;28.70;82.20
1686;DHT22;840;47.980;7.830;2022-07-03T12:18:43;28.80;83.40
1686;DHT22;840;47.980;7.830;2022-07-03T12:21:11;29.00;83.30
1686;DHT22;840;47.980;7.830;2022-07-03T12:23:45;29.10;87.60
1686;DHT22;840;47.980;7.830;2022-07-03T12:26:13;29.30;87.90
1686;DHT22;840;47.980;7.830;2022-07-03T12:28:41;29.60;86.70
1686;DHT22;840;47.980;7.830;2022-07-03T12:31:09;29.80;83.20
1686;DHT22;840;47.980;7.830;2022-07-03T12:33:36;30.00;83.00
1686;DHT22;840;47.980;7.830;2022-07-03T12:36:06;30.20;81.20
1686;DHT22;840;47.980;7.830;2022-07-03T12:38:35;30.40;79.30
1686;DHT22;840;47.980;7.830;2022-07-03T12:41:04;30.60;79.70
1686;DHT22;840;47.980;7.830;2022-07-03T12:43:39;30.70;76.70
1686;DHT22;840;47.980;7.830;2022-07-03T12:46:22;30.80;78.00
1686;DHT22;840;47.980;7.830;2022-07-03T12:48:50;31.00;75.30
1686;DHT22;840;47.980;7.830;2022-07-03T12:51:36;31.20;79.40
1686;DHT22;840;47.980;7.830;2022-07-03T12:54:04;31.40;77.30
1686;DHT22;840;47.980;7.830;2022-07-03T12:56:31;31.60;74.00
1686;DHT22;840;47.980;7.830;2022-07-03T12:58:58;31.60;68.90
1686;DHT22;840;47.980;7.830;2022-07-03T13:01:44;31.80;73.80
1686;DHT22;840;47.980;7.830;2022-07-03T13:04:12;31.90;64.70
1686;DHT22;840;47.980;7.830;2022-07-03T13:06:43;31.90;62.70
1686;DHT22;840;47.980;7.830;2022-07-03T13:09:12;31.80;62.50
1686;DHT22;840;47.980;7.830;2022-07-03T13:11:39;31.90;65.10
1686;DHT22;840;47.980;7.830;2022-07-03T13:14:09;32.10;68.00
1686;DHT22;840;47.980;7.830;2022-07-03T13:16:45;32.40;66.40
1686;DHT22;840;47.980;7.830;2022-07-03T13:19:13;32.70;69.20
1686;DHT22;840;47.980;7.830;2022-07-03T13:21:41;33.00;63.10
1686;DHT22;840;47.980;7.830;2022-07-03T13:24:09;33.30;61.00
1686;DHT22;840;47.980;7.830;2022-07-03T13:26:36;33.40;61.00
1686;DHT22;840;47.980;7.830;2022-07-03T13:29:03;33.50;59.50
1686;DHT22;840;47.980;7.830;2022-07-03T13:31:30;33.80;61.30
1686;DHT22;840;47.980;7.830;2022-07-03T13:33:59;34.10;59.40
1686;DHT22;840;47.980;7.830;2022-07-03T13:36:26;34.30;54.20
1686;DHT22;840;47.980;7.830;2022-07-03T13:38:53;34.50;54.60
1686;DHT22;840;47.980;7.830;2022-07-03T13:41:20;34.60;53.90
1686;DHT22;840;47.980;7.830;2022-07-03T13:43:48;34.60;51.70
1686;DHT22;840;47.980;7.830;2022-07-03T13:46:16;34.80;52.70
1686;DHT22;840;47.980;7.830;2022-07-03T13:48:43;35.00;52.70
1686;DHT22;840;47.980;7.830;2022-07-03T13:51:11;35.30;53.10
1686;DHT22;840;47.980;7.830;2022-07-03T13:53:38;35.60;52.40
1686;DHT22;840;47.980;7.830;2022-07-03T13:56:05;35.60;49.80
1686;DHT22;840;47.980;7.830;2022-07-03T13:58:32;35.80;50.20
1686;DHT22;840;47.980;7.830;2022-07-03T14:00:59;36.10;51.90
1686;DHT22;840;47.980;7.830;2022-07-03T14:03:30;36.10;49.90
1686;DHT22;840;47.980;7.830;2022-07-03T14:05:56;36.20;49.10
1686;DHT22;840;47.980;7.830;2022-07-03T14:08:25;36.40;51.60
1686;DHT22;840;47.980;7.830;2022-07-03T14:10:52;36.70;51.90
1686;DHT22;840;47.980;7.830;2022-07-03T14:13:18;37.00;50.30
1686;DHT22;840;47.980;7.830;2022-07-03T14:15:45;37.20;51.50
1686;DHT22;840;47.980;7.830;2022-07-03T14:18:12;37.40;49.80
1686;DHT22;840;47.980;7.830;2022-07-03T14:20:38;37.50;47.70
1686;DHT22;840;47.980;7.830;2022-07-03T14:23:05;37.60;47.90
1686;DHT22;840;47.980;7.830;2022-07-03T14:25:33;37.80;48.40
1686;DHT22;840;47.980;7.830;2022-07-03T14:28:02;38.00;48.40
1686;DHT22;840;47.980;7.830;2022-07-03T14:30:46;38.00;47.50
1686;DHT22;840;47.980;7.830;2022-07-03T14:33:31;38.00;46.30
1686;DHT22;840;47.980;7.830;2022-07-03T14:35:57;38.00;44.50
1686;DHT22;840;47.980;7.830;2022-07-03T14:38:24;38.00;45.00
1686;DHT22;840;47.980;7.830;2022-07-03T14:40:52;38.00;44.30
1686;DHT22;840;47.980;7.830;2022-07-03T14:43:19;38.00;46.40
1686;DHT22;840;47.980;7.830;2022-07-03T14:45:46;38.10;45.10
1686;DHT22;840;47.980;7.830;2022-07-03T14:48:13;38.20;45.90
1686;DHT22;840;47.980;7.830;2022-07-03T14:50:40;38.30;44.80
1686;DHT22;840;47.980;7.830;2022-07-03T14:53:07;38.30;43.60
1686;DHT22;840;47.980;7.830;2022-07-03T14:55:39;38.20;44.30
1686;DHT22;840;47.980;7.830;2022-07-03T14:58:14;38.10;44.20
1686;DHT22;840;47.980;7.830;2022-07-03T15:00:46;38.30;44.00
1686;DHT22;840;47.980;7.830;2022-07-03T15:03:17;38.40;42.20
1686;DHT22;840;47.980;7.830;2022-07-03T15:05:45;38.50;43.40
1686;DHT22;840;47.980;7.830;2022-07-03T15:08:32;38.40;42.70
1686;DHT22;840;47.980;7.830;2022-07-03T15:11:07;38.00;39.20
1686;DHT22;840;47.980;7.830;2022-07-03T15:13:36;37.80;43.60
1686;DHT22;840;47.980;7.830;2022-07-03T15:16:03;37.60;42.50
1686;DHT22;840;47.980;7.830;2022-07-03T15:18:31;37.40;44.60
1686;DHT22;840;47.980;7.830;2022-07-03T15:20:58;37.30;45.30
1686;DHT22;840;47.980;7.830;2022-07-03T15:23:28;37.10;43.80
1686;DHT22;840;47.980;7.830;2022-07-03T15:25:55;36.90;44.30
1686;DHT22;840;47.980;7.830;2022-07-03T15:28:23;36.50;43.80
1686;DHT22;840;47.980;7.830;2022-07-03T15:30:54;36.30;46.00
1686;DHT22;840;47.980;7.830;2022-07-03T15:33:23;36.10;47.00
1686;DHT22;840;47.980;7.830;2022-07-03T15:35:55;35.80;45.10
1686;DHT22;840;47.980;7.830;2022-07-03T15:38:35;35.70;46.40
1686;DHT22;840;47.980;7.830;2022-07-03T15:41:06;35.60;45.70
1686;DHT22;840;47.980;7.830;2022-07-03T15:43:49;35.70;45.50
1686;DHT22;840;47.980;7.830;2022-07-03T15:46:30;35.80;45.60
1686;DHT22;840;47.980;7.830;2022-07-03T15:49:14;35.80;45.00
1686;DHT22;840;47.980;7.830;2022-07-03T15:51:46;35.90;45.80
1686;DHT22;840;47.980;7.830;2022-07-03T15:54:23;36.20;46.80
1686;DHT22;840;47.980;7.830;2022-07-03T15:56:54;36.30;47.00
1686;DHT22;840;47.980;7.830;2022-07-03T15:59:25;36.30;46.40
1686;DHT22;840;47.980;7.830;2022-07-03T16:01:59;36.20;45.50
1686;DHT22;840;47.980;7.830;2022-07-03T16:04:53;36.10;47.50
1686;DHT22;840;47.980;7.830;2022-07-03T16:07:27;35.90;47.50
1686;DHT22;840;47.980;7.830;2022-07-03T16:09:54;36.00;46.20
1686;DHT22;840;47.980;7.830;2022-07-03T16:12:22;36.00;47.50
1686;DHT22;840;47.980;7.830;2022-07-03T16:14:51;36.10;47.10
1686;DHT22;840;47.980;7.830;2022-07-03T16:17:21;36.20;48.40
1686;DHT22;840;47.980;7.830;2022-07-03T16:19:50;36.30;47.80
1686;DHT22;840;47.980;7.830;2022-07-03T16:22:17;36.40;47.90
1686;DHT22;840;47.980;7.830;2022-07-03T16:24:46;36.50;47.60
1686;DHT22;840;47.980;7.830;2022-07-03T16:27:16;36.50;47.30
1686;DHT22;840;47.980;7.830;2022-07-03T16:29:43;36.50;48.20
1686;DHT22;840;47.980;7.830;2022-07-03T16:32:12;36.30;47.30
1686;DHT22;840;47.980;7.830;2022-07-03T16:34:45;36.30;48.10
1686;DHT22;840;47.980;7.830;2022-07-03T16:37:19;36.50;49.00
1686;DHT22;840;47.980;7.830;2022-07-03T16:39:48;36.70;48.00